Flight Track Log - Related Links

Times and Time Zones

All times are in EDT time to prevent confusion due to time zone crossing. See the UAL527 flight status page for this flight to view local times or setup timezone preferences in your user account.

Time Position Orientation Groundspeed Altitude Reporting Facility
EDT Latitude Longitude Course Direction KTS MPH feet Rate Location/Type
Wed 07:11:16 AM 29.9569 -95.3369 99° East 171 197 1,100  Level Houston Center
Wed 07:11:53 AM 29.9353 -95.3058 129° Southeast 209 241 2,400 1,891 Climbing Houston Center
Wed 07:12:48 AM 29.8981 -95.2453 125° Southeast 265 305 4,000 1,271 Climbing Houston Center
Wed 07:13:00 AM 29.9249 -94.9115 102° East  Level FlightAware Approximate
Wed 07:13:18 AM 29.8881 -95.2150 111° Southeast 251 289 4,200  Level Houston Center
Wed 07:13:55 AM 29.8997 -95.1511 78° East 283 326 5,000 1,377 Climbing Houston Center
Wed 07:14:00 AM 29.9086 -94.7700 95° East  Level FlightAware Approximate
Wed 07:14:19 AM 29.9050 -95.1306 73° East 272 313 5,600  Level Houston Center
Wed 07:14:50 AM 29.9161 -95.0792 76° East 275 316 7,500 3,049 Climbing Houston Center
Wed 07:15:00 AM 29.8945 -94.6281 99° East  Level FlightAware Approximate
Wed 07:15:20 AM 29.9175 -95.0431 87° East 283 326 8,700  Level Houston Center
Wed 07:15:50 AM 29.9117 -94.9856 97° East 284 327 10,200 1,770 Climbing Houston Center
Wed 07:16:00 AM 29.8744 -94.4872 99° East  Level FlightAware Approximate
Wed 07:16:21 AM 29.9111 -94.9483 91° East 296 341 10,500  Level Houston Center
Wed 07:17:22 AM 29.9025 -94.8392 95° East 337 388 13,500 2,727 Climbing Houston Center
Wed 07:18:22 AM 29.8975 -94.7264 93° East 353 406 16,000 2,231 Climbing Houston Center
Wed 07:19:23 AM 29.9144 -94.6094 80° East 370 426 18,000 2,164 Climbing Houston Center
Wed 07:20:24 AM 29.9356 -94.4725 80° East 389 448 20,400 2,016 Climbing Houston Center
Wed 07:21:25 AM 29.9536 -94.3411 81° East 407 468 22,100 1,672 Climbing Houston Center
Wed 07:22:26 AM 29.9750 -94.2047 80° East 427 491 23,800 1,721 Climbing Houston Center
Wed 07:23:27 AM 29.9967 -94.0628 80° East 444 511 25,600 1,785 Climbing Houston Center
Wed 07:24:27 AM 30.0186 -93.9178 80° East 456 525 27,400 1,636 Climbing Houston Center
Wed 07:25:28 AM 30.0411 -93.7708 80° East 464 534 28,900 1,328 Climbing Houston Center
Wed 07:26:29 AM 30.0644 -93.6189 80° East 478 550 30,100 1,475 Climbing Houston Center
Wed 07:27:30 AM 30.0906 -93.4322 81° East 496 571 31,900 1,918 Climbing Houston Center
Wed 07:28:31 AM 30.1144 -93.2781 80° East 497 572 34,000 1,721 Climbing Houston Center
Wed 07:29:32 AM 30.1369 -93.1289 80° East 482 555 35,400 1,279 Climbing Houston Center
Wed 07:30:33 AM 30.1692 -92.9792 76° East 485 558 36,600 787 Climbing Houston Center
Wed 07:31:34 AM 30.2042 -92.8339 74° East 474 545 37,000 197 Climbing Houston Center
Wed 07:32:35 AM 30.2369 -92.6867 76° East 476 548 37,000  Level Houston Center
Wed 07:33:36 AM 30.2725 -92.5394 74° East 477 549 37,000  Level Houston Center
Wed 07:34:37 AM 30.3050 -92.3917 76° East 477 549 37,000  Level Houston Center
Wed 07:35:38 AM 30.3406 -92.2358 75° East 474 545 37,000  Level Houston Center
Wed 07:36:39 AM 30.3742 -92.0883 75° East 477 549 37,000  Level Houston Center
Wed 07:37:40 AM 30.4147 -91.9119 75° East 475 547 37,000  Level Houston Center
Wed 07:38:42 AM 30.4472 -91.7644 76° East 477 549 37,000  Level Houston Center
Wed 07:39:43 AM 30.4822 -91.6150 75° East 481 554 37,000  Level Houston Center
Wed 07:40:44 AM 30.5161 -91.4664 75° East 480 552 37,000  Level Houston Center
Wed 07:41:45 AM 30.5444 -91.3336 76° East 473 544 37,000  Level Houston Center
Wed 07:42:46 AM 30.5761 -91.1850 76° East 475 547 37,000  Level Houston Center
Wed 07:43:47 AM 30.6158 -91.0075 75° East 473 544 37,000  Level Houston Center
Wed 07:44:48 AM 30.6481 -90.8597 76° East 473 544 37,000  Level Houston Center
Wed 07:45:50 AM 30.6800 -90.7119 76° East 472 543 37,000  Level Houston Center
Wed 07:46:51 AM 30.7128 -90.5644 75° East 471 542 37,000  Level Houston Center
Wed 07:47:52 AM 30.7431 -90.4167 77° East 470 541 37,000  Level Houston Center
Wed 07:48:53 AM 30.7750 -90.2667 76° East 473 544 37,000  Level Houston Center
Wed 07:49:54 AM 30.8067 -90.1164 76° East 476 548 37,000  Level Houston Center
Wed 07:50:56 AM 30.8364 -89.9647 77° East 478 550 37,000  Level Houston Center
Wed 07:51:57 AM 30.8672 -89.8136 77° East 478 550 37,000  Level Houston Center
Wed 07:52:58 AM 30.8992 -89.6622 76° East 478 550 37,000  Level Houston Center
Wed 07:53:59 AM 30.9306 -89.5100 76° East 480 552 37,000  Level Houston Center
Wed 07:55:01 AM 30.9606 -89.3578 77° East 481 554 37,000  Level Houston Center
Wed 07:56:02 AM 30.9911 -89.2067 77° East 480 552 37,000  Level Houston Center
Wed 07:57:03 AM 31.0275 -89.0231 77° East 482 555 37,000  Level Houston Center
Wed 07:58:05 AM 31.0528 -88.8897 77° East 478 550 37,000  Level Houston Center
Wed 07:59:06 AM 31.0828 -88.7372 77° East 481 554 37,000  Level Houston Center
Wed 08:00:07 AM 31.1175 -88.5678 76° East 481 554 37,000  Level Houston Center
Wed 08:01:09 AM 31.1469 -88.4169 77° East 479 551 37,000  Level Houston Center
Wed 08:02:10 AM 31.1786 -88.2675 76° East 476 548 37,000  Level Houston Center
Wed 08:03:11 AM 31.2067 -88.1150 78° East 479 551 37,000  Level Houston Center
Wed 08:04:13 AM 31.2353 -87.9703 77° East 478 550 37,000  Level Houston Center
Wed 08:05:14 AM 31.2683 -87.7881 78° East 478 550 37,000  Level Houston Center
Wed 08:06:16 AM 31.2967 -87.6369 78° East 478 550 37,000  Level Houston Center
Wed 08:07:17 AM 31.3606 -87.5022 61° Northeast 482 555 37,000  Level Houston Center
Wed 08:08:18 AM 31.4486 -87.3856 48° Northeast 481 554 37,000  Level Houston Center
Wed 08:09:20 AM 31.5364 -87.2672 49° Northeast 483 556 37,000  Level Houston Center
Wed 08:10:21 AM 31.6228 -87.1469 50° Northeast 485 558 37,000  Level Houston Center
Wed 08:11:12 AM 31.7083 -87.0342 48° Northeast 478 550 37,000  Level Atlanta Center
Wed 08:12:12 AM 31.7947 -86.9122 50° Northeast 478 550 37,000  Level Atlanta Center
Wed 08:13:12 AM 31.8850 -86.7928 48° Northeast 478 550 37,000  Level Atlanta Center
Wed 08:14:12 AM 31.9519 -86.6947 51° Northeast 478 550 37,000  Level Atlanta Center
Wed 08:15:12 AM 32.0547 -86.5628 47° Northeast 483 556 37,000  Level Atlanta Center
Wed 08:16:12 AM 32.1450 -86.4403 49° Northeast 483 556 37,000  Level Atlanta Center
Wed 08:17:12 AM 32.2350 -86.3078 51° Northeast 471 542 37,000  Level Atlanta Center
Wed 08:18:12 AM 32.3167 -86.1794 53° Northeast 477 549 37,000  Level Atlanta Center
Wed 08:19:12 AM 32.4003 -86.0511 52° Northeast 487 560 37,000  Level Atlanta Center
Wed 08:20:12 AM 32.4856 -85.9275 51° Northeast 487 560 37,000  Level Atlanta Center
Wed 08:21:12 AM 32.5647 -85.8108 51° Northeast 486 559 37,000  Level Atlanta Center
Wed 08:22:12 AM 32.6456 -85.6867 52° Northeast 486 559 37,000  Level Atlanta Center
Wed 08:23:12 AM 32.7286 -85.5647 51° Northeast 481 554 37,000  Level Atlanta Center
Wed 08:24:12 AM 32.8114 -85.4403 52° Northeast 481 554 37,000  Level Atlanta Center
Wed 08:25:12 AM 32.8942 -85.3153 52° Northeast 481 554 37,000  Level Atlanta Center
Wed 08:26:12 AM 32.9747 -85.1878 53° Northeast 481 554 37,000  Level Atlanta Center
Wed 08:27:12 AM 33.0658 -85.0550 51° Northeast 475 547 37,000  Level Atlanta Center
Wed 08:28:12 AM 33.1503 -84.9269 52° Northeast 475 547 37,000  Level Atlanta Center
Wed 08:29:12 AM 33.2325 -84.8011 52° Northeast 480 552 37,000  Level Atlanta Center
Wed 08:30:12 AM 33.3147 -84.6728 53° Northeast 488 562 37,000  Level Atlanta Center
Wed 08:31:12 AM 33.3986 -84.5439 52° Northeast 488 562 37,000  Level Atlanta Center
Wed 08:32:12 AM 33.4828 -84.4150 52° Northeast 488 562 37,000  Level Atlanta Center
Wed 08:33:12 AM 33.5664 -84.2806 53° Northeast 488 562 37,000  Level Atlanta Center
Wed 08:34:12 AM 33.6522 -84.1511 51° Northeast 488 562 37,000  Level Atlanta Center
Wed 08:35:12 AM 33.7358 -84.0189 53° Northeast 488 562 37,000  Level Atlanta Center
Wed 08:36:12 AM 33.8214 -83.8864 52° Northeast 488 562 37,000  Level Atlanta Center
Wed 08:37:12 AM 33.8961 -83.7736 51° Northeast 488 562 37,000  Level Atlanta Center
Wed 08:38:12 AM 33.9772 -83.6406 54° Northeast 488 562 37,000  Level Atlanta Center
Wed 08:39:12 AM 34.0603 -83.5122 52° Northeast 483 556 37,000  Level Atlanta Center
Wed 08:40:12 AM 34.1389 -83.3836 54° Northeast 477 549 37,000  Level Atlanta Center
Wed 08:41:12 AM 34.2217 -83.2575 52° Northeast 482 555 37,000  Level Atlanta Center
Wed 08:42:12 AM 34.3000 -83.1286 54° Northeast 482 555 37,000  Level Atlanta Center
Wed 08:43:12 AM 34.3806 -82.9992 53° Northeast 482 555 37,000  Level Atlanta Center
Wed 08:44:12 AM 34.4586 -82.8672 54° Northeast 482 555 37,000  Level Atlanta Center
Wed 08:45:12 AM 34.5447 -82.7250 54° Northeast 477 549 37,000  Level Atlanta Center
Wed 08:46:12 AM 34.6269 -82.6000 51° Northeast 482 555 37,000  Level Atlanta Center
Wed 08:47:12 AM 34.6964 -82.4825 54° Northeast 482 555 37,000  Level Atlanta Center
Wed 08:48:12 AM 34.7761 -82.3519 53° Northeast 482 555 37,000  Level Atlanta Center
Wed 08:49:12 AM 34.8578 -82.2189 53° Northeast 482 555 37,000  Level Atlanta Center
Wed 08:50:12 AM 34.9453 -82.0800 52° Northeast 476 548 37,000  Level Atlanta Center
Wed 08:51:12 AM 35.0164 -81.9642 53° Northeast 476 548 37,000  Level Atlanta Center
Wed 08:52:12 AM 35.0892 -81.8253 57° Northeast 481 554 37,000  Level Atlanta Center
Wed 08:53:12 AM 35.1617 -81.6914 56° Northeast 473 544 37,000  Level Atlanta Center
Wed 08:54:12 AM 35.2361 -81.5519 57° Northeast 484 557 37,000  Level Atlanta Center
Wed 08:55:12 AM 35.3064 -81.4122 58° Northeast 484 557 37,000  Level Atlanta Center
Wed 08:56:12 AM 35.3783 -81.2725 58° Northeast 489 563 37,000  Level Atlanta Center
Wed 08:57:12 AM 35.4500 -81.1300 58° Northeast 489 563 37,000  Level Atlanta Center
Wed 08:58:12 AM 35.5258 -80.9869 57° Northeast 495 570 37,000  Level Atlanta Center
Wed 08:59:12 AM 35.5997 -80.8486 57° Northeast 490 564 37,000  Level Atlanta Center
Wed 09:00:12 AM 35.6731 -80.7053 58° Northeast 490 564 37,000  Level Atlanta Center
Wed 09:01:12 AM 35.7464 -80.5667 57° Northeast 490 564 37,000  Level Atlanta Center
Wed 09:03:03 AM 35.8864 -80.2914 58° Northeast 500 575 37,000  Level Washington Center
Wed 09:04:03 AM 35.9567 -80.1467 59° Northeast 493 567 37,000  Level Washington Center
Wed 09:05:01 AM 36.0306 -80.0097 56° Northeast 488 562 37,000  Level Washington Center
Wed 09:06:02 AM 36.1064 -79.8778 55° Northeast 481 554 37,000  Level Washington Center
Wed 09:07:02 AM 36.1844 -79.7328 56° Northeast 484 557 37,000  Level Washington Center
Wed 09:08:02 AM 36.2622 -79.5953 55° Northeast 489 563 37,000  Level Washington Center
Wed 09:09:03 AM 36.3400 -79.4572 55° Northeast 484 557 37,000  Level Washington Center
Wed 09:10:01 AM 36.4064 -79.3342 56° Northeast 478 550 37,000  Level Washington Center
Wed 09:11:02 AM 36.4836 -79.1983 55° Northeast 478 550 37,000  Level Washington Center
Wed 09:12:02 AM 36.5836 -79.0633 47° Northeast 478 550 37,000  Level Washington Center
Wed 09:13:01 AM 36.6828 -78.9536 42° Northeast 478 550 37,000  Level Washington Center
Wed 09:14:02 AM 36.7858 -78.8467 40° Northeast 472 543 37,000  Level Washington Center
Wed 09:15:02 AM 36.8867 -78.7367 41° Northeast 472 543 37,000  Level Washington Center
Wed 09:16:01 AM 36.9769 -78.6417 40° Northeast 472 543 37,000  Level Washington Center
Wed 09:17:01 AM 37.0797 -78.5336 40° Northeast 472 543 37,000  Level Washington Center
Wed 09:18:02 AM 37.1825 -78.4256 40° Northeast 472 543 37,000  Level Washington Center
Wed 09:19:02 AM 37.2936 -78.3042 41° Northeast 477 549 37,000  Level Washington Center
Wed 09:20:03 AM 37.3964 -78.1931 41° Northeast 477 549 37,000  Level Washington Center
Wed 09:21:03 AM 37.4944 -78.0864 41° Northeast 472 543 37,000 49 Level Washington Center
Wed 09:22:05 AM 37.5969 -77.9797 39° Northeast 472 543 37,100  Climbing Washington Center
Wed 09:23:02 AM 37.6950 -77.8672 42° Northeast 472 543 37,000 -51 Descending Washington Center
Wed 09:24:02 AM 37.7950 -77.7572 41° Northeast 472 543 37,000  Level Washington Center
Wed 09:25:03 AM 37.8969 -77.6469 40° Northeast 472 543 37,000  Level Washington Center
Wed 09:26:03 AM 37.9969 -77.5392 40° Northeast 472 543 37,000  Level Washington Center
Wed 09:27:01 AM 38.0861 -77.4411 41° Northeast 472 543 37,000  Level Washington Center
Wed 09:28:01 AM 38.1814 -77.3325 42° Northeast 466 536 37,000  Level Washington Center
Wed 09:29:01 AM 38.2811 -77.2211 41° Northeast 466 536 37,000  Level Washington Center
Wed 09:30:02 AM 38.3806 -77.1094 41° Northeast 466 536 37,000  Level Washington Center
Wed 09:31:02 AM 38.4778 -77.0000 41° Northeast 466 536 37,000 -397 Level Washington Center
Wed 09:32:03 AM 38.5792 -76.8878 41° Northeast 466 536 36,200 -893 Descending Washington Center
Wed 09:33:03 AM 38.6761 -76.7778 42° Northeast 466 536 35,200 -966 Descending Washington Center
Wed 09:34:01 AM 38.7711 -76.6647 43° Northeast 461 531 34,300 -908 Descending Washington Center
Wed 09:35:02 AM 38.8678 -76.5542 42° Northeast 461 531 33,400 -694 Descending Washington Center
Wed 09:36:02 AM 38.9603 -76.4486 42° Northeast 461 531 32,900 -1,059 Descending Washington Center
Wed 09:37:01 AM 39.0506 -76.3428 42° Northeast 450 518 31,300 -1,462 Descending Washington Center
Wed 09:38:01 AM 39.1492 -76.2286 42° Northeast 436 502 30,000 -1,785 Descending Washington Center
Wed 09:39:02 AM 39.2331 -76.1356 41° Northeast 421 484 27,700 -1,918 Descending Washington Center
Wed 09:40:03 AM 39.3147 -76.0394 42° Northeast 407 468 26,100 -1,537 Descending Washington Center
Wed 09:41:03 AM 39.3964 -75.9406 43° Northeast 402 463 24,600 -1,271 Descending Washington Center
Wed 09:42:01 AM 39.4842 -75.8417 41° Northeast 402 463 23,600 -1,068 Descending Washington Center
Wed 09:43:01 AM 39.5697 -75.7397 43° Northeast 407 468 22,500 -1,050 Descending Washington Center
Wed 09:44:01 AM 39.6531 -75.6428 42° Northeast 407 468 21,500 -1,289 Descending Washington Center
Wed 09:45:02 AM 39.7344 -75.5431 43° Northeast 402 463 19,900 -1,785 Descending Washington Center
Wed 09:46:02 AM 39.8136 -75.4456 43° Northeast 395 455 17,900 -1,714 Descending Washington Center
Wed 09:47:01 AM 39.8842 -75.3617 42° Northeast 387 445 16,500 -1,664 Descending Washington Center
Wed 09:48:01 AM 39.9589 -75.2694 43° Northeast 377 434 14,600 -1,869 Descending Washington Center
Wed 09:49:03 AM 40.0317 -75.1822 43° Northeast 364 419 12,700 -1,500 Descending Washington Center
Wed 09:50:25 AM 40.1333 -75.0667 41° Northeast 320 368 11,000 -1,268 Descending New York TRACON
Wed 09:51:25 AM 40.1833 -74.9833 52° Northeast 296 341 9,700 -1,350 Descending New York TRACON
Wed 09:52:25 AM 40.2500 -74.9167 37° Northeast 286 329 8,300 -850 Descending New York TRACON
Wed 09:53:25 AM 40.2833 -74.8167 66° East 286 329 8,000 -555 Descending New York TRACON
Wed 09:54:24 AM 40.3333 -74.7333 52° Northeast 282 325 7,200 -947 Descending New York TRACON
Wed 09:55:19 AM 40.3667 -74.6500 62° Northeast 273 314 6,200 -1,252 Descending New York TRACON
Wed 09:56:19 AM 40.4000 -74.5667 62° Northeast 270 311 4,800 -1,200 Descending New York TRACON
Wed 09:57:19 AM 40.4333 -74.4833 62° Northeast 264 304 3,800 -750 Descending New York TRACON
Wed 09:58:19 AM 40.4667 -74.4000 62° Northeast 260 299 3,300 -400 Descending New York TRACON
Wed 09:59:19 AM 40.5000 -74.3167 62° Northeast 250 288 3,000 -150 Descending New York TRACON
Wed 10:00:19 AM 40.5333 -74.2667 49° Northeast 204 235 3,000  Level New York TRACON

Login

Don't have an account? Register now (free) for customized features, flight alerts, and more!